KCSQ/CSQ METAR and TAF weather

Enter ICAO airport designator
Station Type Date Time Source
KCSQ METAR 2020/01/21 18:35 UTC NOAA

KCSQ 211835Z AUTO 20012KT 10SM BKN004 SCT009 M10/M10 A3041 RMK AO2


Station Type Date Time Source
KCSQ Decoded METAR 2020/01/21 18:35 UTC NOAA

Creston, IA, United States (KCSQ) 41-01N 094-22W
Jan 21, 2020 - 01:35 PM EST / 2020.01.21 1835 UTC
Wind: from the SSW (200 degrees) at 14 MPH (12 KT):0
Visibility: 10 mile(s):0
Sky conditions: mostly cloudy
Temperature: 14 F (-10 C)
Windchill: 0 F (-18 C):1
Dew Point: 14 F (-10 C)
Relative Humidity: 100%
Pressure (altimeter): 30.41 in. Hg (1029 hPa)
ob: KCSQ 211835Z AUTO 20012KT 10SM BKN004 SCT009 M10/M10 A3041 RMK AO2
cycle: 18

Station Type Date Time Source
KCSQ TAF UTC NOAA

Error!

Example: see airport list